sensor_id;sensor_type;location;lat;lon;timestamp;pressure;altitude;pressure_sealevel;temperature;humidity
57628;BME280;43451;49.060;10.616;2023-10-19T00:02:13;95294.22;;;8.53;100.00
57628;BME280;43451;49.060;10.616;2023-10-19T00:04:40;95301.28;;;8.47;100.00
57628;BME280;43451;49.060;10.616;2023-10-19T00:07:06;95293.97;;;8.47;100.00
57628;BME280;43451;49.060;10.616;2023-10-19T00:09:34;95281.59;;;8.46;100.00
57628;BME280;43451;49.060;10.616;2023-10-19T00:12:04;95286.09;;;8.53;100.00
57628;BME280;43451;49.060;10.616;2023-10-19T00:14:31;95281.59;;;8.46;100.00
57628;BME280;43451;49.060;10.616;2023-10-19T00:16:58;95283.06;;;8.51;100.00
57628;BME280;43451;49.060;10.616;2023-10-19T00:19:26;95282.84;;;8.42;100.00
57628;BME280;43451;49.060;10.616;2023-10-19T00:21:55;95278.28;;;8.35;100.00
57628;BME280;43451;49.060;10.616;2023-10-19T00:24:28;95270.00;;;8.46;100.00
57628;BME280;43451;49.060;10.616;2023-10-19T00:26:56;95275.13;;;8.64;100.00
57628;BME280;43451;49.060;10.616;2023-10-19T00:29:22;95276.91;;;8.50;100.00
57628;BME280;43451;49.060;10.616;2023-10-19T00:31:58;95267.47;;;8.58;100.00
57628;BME280;43451;49.060;10.616;2023-10-19T00:34:27;95254.50;;;8.70;100.00
57628;BME280;43451;49.060;10.616;2023-10-19T00:36:54;95258.13;;;8.63;100.00
57628;BME280;43451;49.060;10.616;2023-10-19T00:39:22;95264.47;;;8.53;100.00
57628;BME280;43451;49.060;10.616;2023-10-19T00:41:48;95270.28;;;8.51;100.00
57628;BME280;43451;49.060;10.616;2023-10-19T00:44:15;95265.09;;;8.37;100.00
57628;BME280;43451;49.060;10.616;2023-10-19T00:46:48;95274.72;;;8.42;100.00
57628;BME280;43451;49.060;10.616;2023-10-19T00:49:21;95268.00;;;8.50;100.00
57628;BME280;43451;49.060;10.616;2023-10-19T00:51:51;95272.13;;;8.58;100.00
57628;BME280;43451;49.060;10.616;2023-10-19T00:54:21;95254.97;;;8.65;100.00
57628;BME280;43451;49.060;10.616;2023-10-19T00:56:53;95257.81;;;8.57;100.00
57628;BME280;43451;49.060;10.616;2023-10-19T00:59:21;95270.00;;;8.46;100.00
57628;BME280;43451;49.060;10.616;2023-10-19T01:01:53;95251.66;;;8.57;100.00
57628;BME280;43451;49.060;10.616;2023-10-19T01:04:37;95251.97;;;8.59;100.00
57628;BME280;43451;49.060;10.616;2023-10-19T01:07:10;95253.47;;;8.64;100.00
57628;BME280;43451;49.060;10.616;2023-10-19T01:09:59;95243.31;;;8.68;100.00
57628;BME280;43451;49.060;10.616;2023-10-19T01:12:25;95223.06;;;8.76;100.00
57628;BME280;43451;49.060;10.616;2023-10-19T01:15:09;95234.44;;;8.67;100.00
57628;BME280;43451;49.060;10.616;2023-10-19T01:17:38;95223.31;;;8.62;100.00
57628;BME280;43451;49.060;10.616;2023-10-19T01:20:10;95222.69;;;8.54;100.00
57628;BME280;43451;49.060;10.616;2023-10-19T01:22:58;95224.97;;;8.55;100.00
57628;BME280;43451;49.060;10.616;2023-10-19T01:25:46;95222.34;;;8.52;100.00
57628;BME280;43451;49.060;10.616;2023-10-19T01:28:24;95223.31;;;8.62;100.00
57628;BME280;43451;49.060;10.616;2023-10-19T01:31:06;95217.44;;;8.67;100.00
57628;BME280;43451;49.060;10.616;2023-10-19T01:33:32;95213.75;;;8.77;100.00
57628;BME280;43451;49.060;10.616;2023-10-19T01:35:59;95200.16;;;8.80;100.00
57628;BME280;43451;49.060;10.616;2023-10-19T01:38:38;95197.78;;;8.82;100.00
57628;BME280;43451;49.060;10.616;2023-10-19T01:41:05;95174.72;;;8.74;100.00
57628;BME280;43451;49.060;10.616;2023-10-19T01:43:44;95173.56;;;8.75;100.00
57628;BME280;43451;49.060;10.616;2023-10-19T01:46:12;95172.84;;;8.71;100.00
57628;BME280;43451;49.060;10.616;2023-10-19T01:48:43;95159.81;;;8.66;100.00
57628;BME280;43451;49.060;10.616;2023-10-19T01:51:12;95147.97;;;8.60;100.00
57628;BME280;43451;49.060;10.616;2023-10-19T01:53:41;95149.91;;;8.59;100.00
57628;BME280;43451;49.060;10.616;2023-10-19T01:56:13;95158.06;;;8.56;100.00
57628;BME280;43451;49.060;10.616;2023-10-19T01:58:41;95164.19;;;8.60;100.00
57628;BME280;43451;49.060;10.616;2023-10-19T02:01:07;95158.44;;;8.58;100.00
57628;BME280;43451;49.060;10.616;2023-10-19T02:03:35;95148.56;;;8.68;100.00
57628;BME280;43451;49.060;10.616;2023-10-19T02:06:03;95154.41;;;8.66;100.00
57628;BME280;43451;49.060;10.616;2023-10-19T02:08:51;95152.09;;;8.65;100.00
57628;BME280;43451;49.060;10.616;2023-10-19T02:11:24;95154.97;;;8.57;100.00
57628;BME280;43451;49.060;10.616;2023-10-19T02:13:52;95150.31;;;8.58;100.00
57628;BME280;43451;49.060;10.616;2023-10-19T02:16:19;95147.31;;;8.52;100.00
57628;BME280;43451;49.060;10.616;2023-10-19T02:18:47;95153.50;;;8.53;100.00
57628;BME280;43451;49.060;10.616;2023-10-19T02:21:13;95149.19;;;8.55;100.00
57628;BME280;43451;49.060;10.616;2023-10-19T02:23:40;95138.03;;;8.53;100.00
57628;BME280;43451;49.060;10.616;2023-10-19T02:26:09;95139.97;;;8.53;100.00
57628;BME280;43451;49.060;10.616;2023-10-19T02:28:37;95134.81;;;8.58;100.00
57628;BME280;43451;49.060;10.616;2023-10-19T02:31:04;95138.38;;;8.55;100.00
57628;BME280;43451;49.060;10.616;2023-10-19T02:33:46;95149.63;;;8.54;100.00
57628;BME280;43451;49.060;10.616;2023-10-19T02:36:13;95170.91;;;8.52;100.00
57628;BME280;43451;49.060;10.616;2023-10-19T02:38:43;95196.19;;;8.65;100.00
57628;BME280;43451;49.060;10.616;2023-10-19T02:41:15;95173.56;;;8.75;100.00
57628;BME280;43451;49.060;10.616;2023-10-19T02:43:41;95166.28;;;8.72;100.00
57628;BME280;43451;49.060;10.616;2023-10-19T02:46:10;95161.41;;;8.83;100.00
57628;BME280;43451;49.060;10.616;2023-10-19T02:48:38;95146.00;;;8.80;100.00
57628;BME280;43451;49.060;10.616;2023-10-19T02:51:09;95149.38;;;8.84;100.00
57628;BME280;43451;49.060;10.616;2023-10-19T02:53:37;95146.34;;;8.82;100.00
57628;BME280;43451;49.060;10.616;2023-10-19T02:56:14;95139.69;;;8.67;100.00
57628;BME280;43451;49.060;10.616;2023-10-19T02:58:45;95127.06;;;8.60;100.00
57628;BME280;43451;49.060;10.616;2023-10-19T03:01:20;95121.28;;;8.58;100.00
57628;BME280;43451;49.060;10.616;2023-10-19T03:03:51;95117.03;;;8.77;100.00
57628;BME280;43451;49.060;10.616;2023-10-19T03:06:22;95108.09;;;8.80;100.00
57628;BME280;43451;49.060;10.616;2023-10-19T03:08:49;95107.44;;;8.93;100.00
57628;BME280;43451;49.060;10.616;2023-10-19T03:11:27;95098.13;;;8.94;100.00
57628;BME280;43451;49.060;10.616;2023-10-19T03:13:53;95091.47;;;8.78;100.00
57628;BME280;43451;49.060;10.616;2023-10-19T03:16:20;95093.66;;;8.67;100.00
57628;BME280;43451;49.060;10.616;2023-10-19T03:18:46;95093.19;;;8.72;100.00
57628;BME280;43451;49.060;10.616;2023-10-19T03:21:12;95095.31;;;8.81;100.00
57628;BME280;43451;49.060;10.616;2023-10-19T03:23:37;95091.94;;;8.93;100.00
57628;BME280;43451;49.060;10.616;2023-10-19T03:26:04;95092.03;;;8.90;100.00
57628;BME280;43451;49.060;10.616;2023-10-19T03:28:49;95104.19;;;8.81;100.00
57628;BME280;43451;49.060;10.616;2023-10-19T03:31:20;95107.88;;;8.71;100.00
57628;BME280;43451;49.060;10.616;2023-10-19T03:33:46;95126.44;;;8.73;100.00
57628;BME280;43451;49.060;10.616;2023-10-19T03:36:23;95118.09;;;8.64;100.00
57628;BME280;43451;49.060;10.616;2023-10-19T03:38:49;95117.28;;;8.67;100.00
57628;BME280;43451;49.060;10.616;2023-10-19T03:41:17;95114.84;;;8.72;100.00
57628;BME280;43451;49.060;10.616;2023-10-19T03:43:49;95111.78;;;8.70;100.00
57628;BME280;43451;49.060;10.616;2023-10-19T03:46:16;95109.47;;;8.69;100.00
57628;BME280;43451;49.060;10.616;2023-10-19T03:48:54;95106.38;;;8.70;100.00
57628;BME280;43451;49.060;10.616;2023-10-19T03:51:25;95100.88;;;8.74;100.00
57628;BME280;43451;49.060;10.616;2023-10-19T03:53:52;95097.13;;;8.68;100.00
57628;BME280;43451;49.060;10.616;2023-10-19T03:56:24;95080.63;;;8.62;100.00
57628;BME280;43451;49.060;10.616;2023-10-19T03:58:50;95069.97;;;8.71;100.00
57628;BME280;43451;49.060;10.616;2023-10-19T04:01:17;95061.88;;;8.88;100.00
57628;BME280;43451;49.060;10.616;2023-10-19T04:03:45;95072.00;;;8.67;100.00
57628;BME280;43451;49.060;10.616;2023-10-19T04:06:10;95065.19;;;8.79;100.00
57628;BME280;43451;49.060;10.616;2023-10-19T04:08:41;95066.25;;;8.65;100.00
57628;BME280;43451;49.060;10.616;2023-10-19T04:11:08;95065.41;;;8.68;100.00
57628;BME280;43451;49.060;10.616;2023-10-19T04:13:38;95052.88;;;8.58;100.00
57628;BME280;43451;49.060;10.616;2023-10-19T04:16:03;95062.78;;;8.65;100.00
57628;BME280;43451;49.060;10.616;2023-10-19T04:18:33;95056.97;;;8.66;100.00
57628;BME280;43451;49.060;10.616;2023-10-19T04:21:00;95049.03;;;8.75;100.00
57628;BME280;43451;49.060;10.616;2023-10-19T04:23:27;95050.56;;;8.93;100.00
57628;BME280;43451;49.060;10.616;2023-10-19T04:25:56;95045.72;;;8.84;100.00
57628;BME280;43451;49.060;10.616;2023-10-19T04:28:22;95051.22;;;8.80;100.00
57628;BME280;43451;49.060;10.616;2023-10-19T04:31:04;95040.38;;;8.80;100.00
57628;BME280;43451;49.060;10.616;2023-10-19T04:33:32;95030.41;;;8.94;100.00
57628;BME280;43451;49.060;10.616;2023-10-19T04:35:59;95033.03;;;8.97;100.00
57628;BME280;43451;49.060;10.616;2023-10-19T04:38:27;95032.78;;;8.92;100.00
57628;BME280;43451;49.060;10.616;2023-10-19T04:40:52;95036.56;;;8.78;100.00
57628;BME280;43451;49.060;10.616;2023-10-19T04:43:18;95036.16;;;8.79;100.00
57628;BME280;43451;49.060;10.616;2023-10-19T04:45:44;95044.03;;;8.74;100.00
57628;BME280;43451;49.060;10.616;2023-10-19T04:48:10;95042.59;;;8.69;100.00
57628;BME280;43451;49.060;10.616;2023-10-19T04:50:36;95040.75;;;8.82;100.00
57628;BME280;43451;49.060;10.616;2023-10-19T04:53:01;95045.31;;;8.86;100.00
57628;BME280;43451;49.060;10.616;2023-10-19T04:55:30;95035.81;;;8.77;100.00
57628;BME280;43451;49.060;10.616;2023-10-19T04:57:56;95038.69;;;8.70;100.00
57628;BME280;43451;49.060;10.616;2023-10-19T05:00:22;95029.81;;;8.70;100.00
57628;BME280;43451;49.060;10.616;2023-10-19T05:02:50;95022.25;;;8.61;100.00
57628;BME280;43451;49.060;10.616;2023-10-19T05:05:18;95021.16;;;8.58;100.00
57628;BME280;43451;49.060;10.616;2023-10-19T05:07:44;95026.81;;;8.64;100.00
57628;BME280;43451;49.060;10.616;2023-10-19T05:10:10;95022.44;;;8.70;100.00
57628;BME280;43451;49.060;10.616;2023-10-19T05:12:36;95022.41;;;8.54;100.00
57628;BME280;43451;49.060;10.616;2023-10-19T05:15:02;95005.63;;;8.43;100.00
57628;BME280;43451;49.060;10.616;2023-10-19T05:17:27;95012.50;;;8.47;100.00
57628;BME280;43451;49.060;10.616;2023-10-19T05:19:53;95008.81;;;8.37;100.00
57628;BME280;43451;49.060;10.616;2023-10-19T05:22:18;95024.34;;;8.33;100.00
57628;BME280;43451;49.060;10.616;2023-10-19T05:24:44;95026.00;;;8.27;100.00
57628;BME280;43451;49.060;10.616;2023-10-19T05:27:11;95021.13;;;8.22;100.00
57628;BME280;43451;49.060;10.616;2023-10-19T05:29:37;95026.53;;;8.22;100.00
57628;BME280;43451;49.060;10.616;2023-10-19T05:32:04;95031.44;;;8.27;100.00
57628;BME280;43451;49.060;10.616;2023-10-19T05:34:29;95023.97;;;8.15;100.00
57628;BME280;43451;49.060;10.616;2023-10-19T05:36:56;95020.91;;;8.13;100.00
57628;BME280;43451;49.060;10.616;2023-10-19T05:39:24;95010.25;;;8.06;100.00
57628;BME280;43451;49.060;10.616;2023-10-19T05:41:56;95026.59;;;7.99;100.00
57628;BME280;43451;49.060;10.616;2023-10-19T05:44:21;95027.47;;;7.92;100.00
57628;BME280;43451;49.060;10.616;2023-10-19T05:46:50;95019.44;;;7.88;100.00
57628;BME280;43451;49.060;10.616;2023-10-19T05:49:16;95020.34;;;7.82;100.00
57628;BME280;43451;49.060;10.616;2023-10-19T05:51:42;95016.13;;;7.81;100.00
57628;BME280;43451;49.060;10.616;2023-10-19T05:54:10;95015.97;;;7.88;100.00
57628;BME280;43451;49.060;10.616;2023-10-19T05:56:35;95027.56;;;7.88;100.00
57628;BME280;43451;49.060;10.616;2023-10-19T05:59:01;95027.69;;;7.81;100.00
57628;BME280;43451;49.060;10.616;2023-10-19T06:01:27;95023.59;;;7.73;100.00
57628;BME280;43451;49.060;10.616;2023-10-19T06:03:53;95031.00;;;7.69;100.00
57628;BME280;43451;49.060;10.616;2023-10-19T06:06:22;95029.50;;;7.68;100.00
57628;BME280;43451;49.060;10.616;2023-10-19T06:08:47;95039.53;;;7.67;100.00
57628;BME280;43451;49.060;10.616;2023-10-19T06:11:15;95026.44;;;7.66;100.00
57628;BME280;43451;49.060;10.616;2023-10-19T06:13:40;95024.91;;;7.65;100.00
57628;BME280;43451;49.060;10.616;2023-10-19T06:16:06;95019.16;;;7.63;100.00
57628;BME280;43451;49.060;10.616;2023-10-19T06:18:31;95032.25;;;7.64;100.00
57628;BME280;43451;49.060;10.616;2023-10-19T06:20:57;95029.56;;;7.64;100.00
57628;BME280;43451;49.060;10.616;2023-10-19T06:23:23;95031.47;;;7.64;100.00
57628;BME280;43451;49.060;10.616;2023-10-19T06:25:48;95018.38;;;7.62;100.00
57628;BME280;43451;49.060;10.616;2023-10-19T06:28:16;95027.25;;;7.63;100.00
57628;BME280;43451;49.060;10.616;2023-10-19T06:30:42;95031.84;;;7.66;100.00
57628;BME280;43451;49.060;10.616;2023-10-19T06:33:08;95031.00;;;7.69;100.00
57628;BME280;43451;49.060;10.616;2023-10-19T06:35:33;95032.88;;;7.72;100.00
57628;BME280;43451;49.060;10.616;2023-10-19T06:38:00;95038.50;;;7.81;100.00
57628;BME280;43451;49.060;10.616;2023-10-19T06:40:26;95042.59;;;7.89;100.00
57628;BME280;43451;49.060;10.616;2023-10-19T06:42:55;95041.97;;;8.02;100.00
57628;BME280;43451;49.060;10.616;2023-10-19T06:45:25;95038.25;;;8.16;100.00
57628;BME280;43451;49.060;10.616;2023-10-19T06:47:51;95043.38;;;8.30;100.00
57628;BME280;43451;49.060;10.616;2023-10-19T06:50:21;95039.00;;;8.36;100.00
57628;BME280;43451;49.060;10.616;2023-10-19T06:52:48;95042.75;;;8.42;100.00
57628;BME280;43451;49.060;10.616;2023-10-19T06:55:16;95047.53;;;8.54;100.00
57628;BME280;43451;49.060;10.616;2023-10-19T06:57:44;95051.53;;;8.66;100.00
57628;BME280;43451;49.060;10.616;2023-10-19T07:00:12;95055.75;;;8.67;100.00
57628;BME280;43451;49.060;10.616;2023-10-19T07:02:46;95048.31;;;8.71;100.00
57628;BME280;43451;49.060;10.616;2023-10-19T07:05:13;95036.16;;;8.79;100.00
57628;BME280;43451;49.060;10.616;2023-10-19T07:07:41;95029.25;;;8.95;100.00
57628;BME280;43451;49.060;10.616;2023-10-19T07:10:10;95028.31;;;9.01;100.00
57628;BME280;43451;49.060;10.616;2023-10-19T07:12:38;95031.34;;;9.03;100.00
57628;BME280;43451;49.060;10.616;2023-10-19T07:15:05;95013.50;;;9.06;100.00
57628;BME280;43451;49.060;10.616;2023-10-19T07:17:36;95017.03;;;9.19;100.00
57628;BME280;43451;49.060;10.616;2023-10-19T07:20:04;95024.00;;;9.20;100.00
57628;BME280;43451;49.060;10.616;2023-10-19T07:22:32;95011.78;;;9.45;100.00
57628;BME280;43451;49.060;10.616;2023-10-19T07:24:58;95011.41;;;9.59;100.00
57628;BME280;43451;49.060;10.616;2023-10-19T07:27:23;95010.38;;;9.69;100.00
57628;BME280;43451;49.060;10.616;2023-10-19T07:29:52;95006.28;;;9.77;100.00
57628;BME280;43451;49.060;10.616;2023-10-19T07:32:18;94996.09;;;9.82;100.00
57628;BME280;43451;49.060;10.616;2023-10-19T07:34:43;94994.00;;;10.02;100.00
57628;BME280;43451;49.060;10.616;2023-10-19T07:37:12;94998.94;;;10.20;100.00
57628;BME280;43451;49.060;10.616;2023-10-19T07:39:49;95004.97;;;10.11;100.00
57628;BME280;43451;49.060;10.616;2023-10-19T07:42:21;95019.44;;;10.21;100.00
57628;BME280;43451;49.060;10.616;2023-10-19T07:44:47;95020.19;;;10.38;100.00
57628;BME280;43451;49.060;10.616;2023-10-19T07:47:12;95018.34;;;10.60;100.00
57628;BME280;43451;49.060;10.616;2023-10-19T07:49:38;95007.63;;;10.69;100.00
57628;BME280;43451;49.060;10.616;2023-10-19T07:52:05;95011.63;;;10.78;100.00
57628;BME280;43451;49.060;10.616;2023-10-19T07:54:33;95000.88;;;10.87;100.00
57628;BME280;43451;49.060;10.616;2023-10-19T07:56:59;95011.72;;;10.87;100.00
57628;BME280;43451;49.060;10.616;2023-10-19T07:59:29;95010.09;;;11.02;100.00
57628;BME280;43451;49.060;10.616;2023-10-19T08:01:54;95017.28;;;10.96;100.00
57628;BME280;43451;49.060;10.616;2023-10-19T08:04:20;95003.56;;;11.12;100.00
57628;BME280;43451;49.060;10.616;2023-10-19T08:06:45;95009.75;;;11.00;100.00
57628;BME280;43451;49.060;10.616;2023-10-19T08:09:12;94996.75;;;10.95;100.00
57628;BME280;43451;49.060;10.616;2023-10-19T08:11:38;95003.38;;;11.07;100.00
57628;BME280;43451;49.060;10.616;2023-10-19T08:14:03;95009.75;;;11.00;100.00
57628;BME280;43451;49.060;10.616;2023-10-19T08:16:30;95012.06;;;11.02;100.00
57628;BME280;43451;49.060;10.616;2023-10-19T08:18:57;95018.13;;;11.06;100.00
57628;BME280;43451;49.060;10.616;2023-10-19T08:21:23;95010.53;;;11.01;100.00
57628;BME280;43451;49.060;10.616;2023-10-19T08:23:48;95016.00;;;10.88;100.00
57628;BME280;43451;49.060;10.616;2023-10-19T08:26:14;95012.59;;;10.84;100.00
57628;BME280;43451;49.060;10.616;2023-10-19T08:28:40;95011.84;;;10.83;100.00
57628;BME280;43451;49.060;10.616;2023-10-19T08:31:08;95009.34;;;10.76;100.00
57628;BME280;43451;49.060;10.616;2023-10-19T08:33:35;95001.31;;;10.60;100.00
57628;BME280;43451;49.060;10.616;2023-10-19T08:36:04;95010.22;;;10.60;100.00
57628;BME280;43451;49.060;10.616;2023-10-19T08:38:30;95003.25;;;10.59;100.00
57628;BME280;43451;49.060;10.616;2023-10-19T08:40:55;95006.75;;;10.60;100.00
57628;BME280;43451;49.060;10.616;2023-10-19T08:43:21;95014.03;;;10.63;100.00
57628;BME280;43451;49.060;10.616;2023-10-19T08:45:47;95011.84;;;10.83;100.00
57628;BME280;43451;49.060;10.616;2023-10-19T08:48:13;95002.19;;;10.69;100.00
57628;BME280;43451;49.060;10.616;2023-10-19T08:50:39;95001.31;;;10.73;100.00
57628;BME280;43451;49.060;10.616;2023-10-19T08:53:07;95001.72;;;10.84;100.00
57628;BME280;43451;49.060;10.616;2023-10-19T08:55:51;95003.81;;;10.80;100.00
57628;BME280;43451;49.060;10.616;2023-10-19T08:58:19;95009.56;;;10.82;100.00
57628;BME280;43451;49.060;10.616;2023-10-19T09:00:50;95003.28;;;10.85;100.00
57628;BME280;43451;49.060;10.616;2023-10-19T09:03:23;95024.03;;;10.79;100.00
57628;BME280;43451;49.060;10.616;2023-10-19T09:05:49;95017.50;;;10.76;100.00
57628;BME280;43451;49.060;10.616;2023-10-19T09:08:19;94991.44;;;10.79;100.00
57628;BME280;43451;49.060;10.616;2023-10-19T09:10:48;94969.56;;;10.95;100.00
57628;BME280;43451;49.060;10.616;2023-10-19T09:13:14;94959.34;;;10.99;100.00
57628;BME280;43451;49.060;10.616;2023-10-19T09:15:43;94945.97;;;11.05;100.00
57628;BME280;43451;49.060;10.616;2023-10-19T09:20:43;94966.66;;;10.77;100.00
57628;BME280;43451;49.060;10.616;2023-10-19T09:23:32;94976.00;;;10.76;100.00
57628;BME280;43451;49.060;10.616;2023-10-19T09:26:00;94971.72;;;10.87;100.00
57628;BME280;43451;49.060;10.616;2023-10-19T09:28:29;94971.84;;;10.84;100.00
57628;BME280;43451;49.060;10.616;2023-10-19T09:30:55;94978.50;;;10.83;100.00
57628;BME280;43451;49.060;10.616;2023-10-19T09:33:21;94978.25;;;10.90;100.00
57628;BME280;43451;49.060;10.616;2023-10-19T09:35:48;94973.91;;;10.92;100.00
57628;BME280;43451;49.060;10.616;2023-10-19T09:38:16;94970.44;;;10.92;100.00
57628;BME280;43451;49.060;10.616;2023-10-19T09:40:47;94974.66;;;10.93;100.00
57628;BME280;43451;49.060;10.616;2023-10-19T09:43:22;94965.75;;;11.05;100.00
57628;BME280;43451;49.060;10.616;2023-10-19T09:45:53;94951.91;;;11.12;100.00
57628;BME280;43451;49.060;10.616;2023-10-19T09:48:24;94944.72;;;11.19;100.00
57628;BME280;43451;49.060;10.616;2023-10-19T09:50:54;94951.38;;;11.18;100.00
57628;BME280;43451;49.060;10.616;2023-10-19T09:53:24;94942.13;;;11.15;100.00
57628;BME280;43451;49.060;10.616;2023-10-19T09:55:51;94948.53;;;11.21;100.00
57628;BME280;43451;49.060;10.616;2023-10-19T09:58:21;94957.16;;;11.20;100.00
57628;BME280;43451;49.060;10.616;2023-10-19T10:00:48;94946.91;;;11.24;100.00
57628;BME280;43451;49.060;10.616;2023-10-19T10:03:48;94944.50;;;11.26;100.00
57628;BME280;43451;49.060;10.616;2023-10-19T10:06:16;94936.81;;;11.46;100.00
57628;BME280;43451;49.060;10.616;2023-10-19T10:08:46;94938.91;;;11.42;100.00
57628;BME280;43451;49.060;10.616;2023-10-19T10:11:18;94940.25;;;11.59;100.00
57628;BME280;43451;49.060;10.616;2023-10-19T10:13:45;94937.09;;;11.61;100.00
57628;BME280;43451;49.060;10.616;2023-10-19T10:16:14;94931.59;;;11.74;100.00
57628;BME280;43451;49.060;10.616;2023-10-19T10:18:42;94940.84;;;11.98;100.00
57628;BME280;43451;49.060;10.616;2023-10-19T10:21:15;94937.75;;;11.87;100.00
57628;BME280;43451;49.060;10.616;2023-10-19T10:26:27;94934.13;;;12.12;100.00
57628;BME280;43451;49.060;10.616;2023-10-19T10:29:15;94931.91;;;12.20;100.00
57628;BME280;43451;49.060;10.616;2023-10-19T10:31:47;94921.25;;;12.35;100.00
57628;BME280;43451;49.060;10.616;2023-10-19T10:37:06;94906.53;;;12.63;100.00
57628;BME280;43451;49.060;10.616;2023-10-19T10:39:37;94916.41;;;12.79;100.00
57628;BME280;43451;49.060;10.616;2023-10-19T10:42:04;94912.50;;;12.98;100.00
57628;BME280;43451;49.060;10.616;2023-10-19T10:44:37;94912.56;;;13.17;100.00
57628;BME280;43451;49.060;10.616;2023-10-19T10:47:19;94899.56;;;13.30;100.00
57628;BME280;43451;49.060;10.616;2023-10-19T10:49:54;94899.84;;;13.41;100.00
57628;BME280;43451;49.060;10.616;2023-10-19T10:52:30;94901.69;;;13.35;100.00
57628;BME280;43451;49.060;10.616;2023-10-19T10:54:58;94902.44;;;13.36;100.00
57628;BME280;43451;49.060;10.616;2023-10-19T10:57:31;94902.91;;;13.43;100.00
57628;BME280;43451;49.060;10.616;2023-10-19T11:00:10;94897.75;;;13.36;100.00
57628;BME280;43451;49.060;10.616;2023-10-19T11:02:59;94901.97;;;13.46;100.00
57628;BME280;43451;49.060;10.616;2023-10-19T11:05:25;94886.84;;;13.55;100.00
57628;BME280;43451;49.060;10.616;2023-10-19T11:08:07;94896.22;;;13.54;100.00
57628;BME280;43451;49.060;10.616;2023-10-19T11:10:33;94894.88;;;13.58;100.00
57628;BME280;43451;49.060;10.616;2023-10-19T11:19:48;94875.28;;;13.60;100.00
57628;BME280;43451;49.060;10.616;2023-10-19T11:22:14;94882.25;;;13.79;100.00
57628;BME280;43451;49.060;10.616;2023-10-19T11:24:39;94883.59;;;13.93;100.00
57628;BME280;43451;49.060;10.616;2023-10-19T11:27:08;94884.19;;;13.88;100.00
57628;BME280;43451;49.060;10.616;2023-10-19T11:29:35;94885.28;;;13.81;100.00
57628;BME280;43451;49.060;10.616;2023-10-19T11:35:27;94880.44;;;13.76;100.00
57628;BME280;43451;49.060;10.616;2023-10-19T11:37:55;94877.84;;;13.73;100.00
57628;BME280;43451;49.060;10.616;2023-10-19T11:40:22;94880.75;;;13.69;100.00
57628;BME280;43451;49.060;10.616;2023-10-19T11:42:48;94875.13;;;13.73;100.00
57628;BME280;43451;49.060;10.616;2023-10-19T11:45:14;94883.78;;;13.71;100.00
57628;BME280;43451;49.060;10.616;2023-10-19T11:51:03;94869.81;;;13.69;100.00
57628;BME280;43451;49.060;10.616;2023-10-19T11:56:50;94874.66;;;13.83;100.00
57628;BME280;43451;49.060;10.616;2023-10-19T11:59:16;94864.34;;;13.87;100.00
57628;BME280;43451;49.060;10.616;2023-10-19T12:01:41;94870.38;;;13.91;100.00
57628;BME280;43451;49.060;10.616;2023-10-19T12:04:08;94872.22;;;13.94;100.00
57628;BME280;43451;49.060;10.616;2023-10-19T12:06:34;94874.94;;;13.94;100.00
57628;BME280;43451;49.060;10.616;2023-10-19T12:09:00;94862.53;;;13.84;100.00
57628;BME280;43451;49.060;10.616;2023-10-19T12:11:36;94868.47;;;13.83;100.00
57628;BME280;43451;49.060;10.616;2023-10-19T12:14:16;94859.22;;;13.80;100.00
57628;BME280;43451;49.060;10.616;2023-10-19T12:16:41;94866.31;;;13.87;100.00
57628;BME280;43451;49.060;10.616;2023-10-19T12:19:07;94863.13;;;13.79;100.00
57628;BME280;43451;49.060;10.616;2023-10-19T12:21:38;94862.22;;;13.73;100.00
57628;BME280;43451;49.060;10.616;2023-10-19T12:24:23;94873.63;;;13.72;100.00
57628;BME280;43451;49.060;10.616;2023-10-19T12:26:49;94867.09;;;13.69;100.00
57628;BME280;43451;49.060;10.616;2023-10-19T12:29:17;94870.28;;;13.77;100.00
57628;BME280;43451;49.060;10.616;2023-10-19T12:31:48;94870.28;;;13.77;100.00
57628;BME280;43451;49.060;10.616;2023-10-19T12:37:36;94851.06;;;13.53;100.00
57628;BME280;43451;49.060;10.616;2023-10-19T12:40:04;94849.41;;;13.46;100.00
57628;BME280;43451;49.060;10.616;2023-10-19T12:42:51;94847.13;;;13.44;100.00
57628;BME280;43451;49.060;10.616;2023-10-19T12:48:25;94846.34;;;13.16;100.00
57628;BME280;43451;49.060;10.616;2023-10-19T12:51:22;94847.84;;;13.08;100.00
57628;BME280;43451;49.060;10.616;2023-10-19T12:57:13;94844.34;;;12.89;100.00
57628;BME280;43451;49.060;10.616;2023-10-19T12:59:47;94845.59;;;12.97;100.00
57628;BME280;43451;49.060;10.616;2023-10-19T13:02:14;94840.75;;;13.01;100.00
57628;BME280;43451;49.060;10.616;2023-10-19T13:04:47;94838.94;;;13.08;100.00
57628;BME280;43451;49.060;10.616;2023-10-19T13:10:19;94832.25;;;12.99;100.00
57628;BME280;43451;49.060;10.616;2023-10-19T13:13:00;94825.13;;;12.93;100.00
57628;BME280;43451;49.060;10.616;2023-10-19T13:15:32;94829.22;;;12.97;100.00
57628;BME280;43451;49.060;10.616;2023-10-19T13:17:58;94820.13;;;12.91;100.00
57628;BME280;43451;49.060;10.616;2023-10-19T13:20:46;94822.56;;;12.89;100.00
57628;BME280;43451;49.060;10.616;2023-10-19T13:23:13;94823.63;;;12.92;100.00
57628;BME280;43451;49.060;10.616;2023-10-19T13:25:55;94813.16;;;12.90;100.00
57628;BME280;43451;49.060;10.616;2023-10-19T13:29:06;94818.00;;;12.95;100.00
57628;BME280;43451;49.060;10.616;2023-10-19T13:34:36;94823.47;;;12.95;100.00
57628;BME280;43451;49.060;10.616;2023-10-19T13:37:27;94820.00;;;12.95;100.00
57628;BME280;43451;49.060;10.616;2023-10-19T13:39:53;94829.84;;;13.01;100.00